Time;durP1;ratioP1;P1;durP2;ratioP2;P2;SDS_P1;SDS_P2;PMS_P1;PMS_P2;Temp;Humidity;BMP_temperature;BMP_pressure;BME280_temperature;BME280_humidity;BME280_pressure;Samples;Min_cycle;Max_cycle;Signal;HPM_P1;HPM_P2
2024/03/14 00:02:17;;;;;;;3.22;2.35;;;;;;;6.54;83.23;94367.22;5117406;27;20031;-75
2024/03/14 00:04:43;;;;;;;3.35;2.53;;;;;;;6.63;83.75;94366.53;5096820;27;20041;-75
2024/03/14 00:07:08;;;;;;;3.97;2.85;;;;;;;6.75;83.54;94375.97;5131549;27;20047;-76
2024/03/14 00:09:33;;;;;;;3.95;2.78;;;;;;;6.67;84.99;94365.38;5132306;27;20553;-76
2024/03/14 00:11:59;;;;;;;3.92;2.58;;;;;;;6.74;85.27;94370.91;5096889;28;20038;-75
2024/03/14 00:14:25;;;;;;;3.65;2.80;;;;;;;6.67;85.07;94365.38;5113360;28;20027;-75
2024/03/14 00:16:53;;;;;;;3.60;2.70;;;;;;;6.48;85.31;94356.41;5128190;27;20023;-75
2024/03/14 00:19:21;;;;;;;3.42;2.50;;;;;;;6.75;84.26;94368.22;5113950;28;20050;-76
2024/03/14 00:21:47;;;;;;;3.28;2.75;;;;;;;6.77;85.15;94365.50;5113710;28;20027;-75
2024/03/14 00:24:13;;;;;;;3.35;2.50;;;;;;;6.60;85.56;94361.59;5114176;28;20473;-75
2024/03/14 00:26:38;;;;;;;3.95;2.28;;;;;;;6.71;83.57;94362.47;5131751;28;20027;-76
2024/03/14 00:29:07;;;;;;;3.28;2.38;;;;;;;6.56;85.14;94362.78;5113552;28;20031;-76
2024/03/14 00:31:37;;;;;;;3.35;2.45;;;;;;;6.62;83.29;94357.16;5113502;28;20027;-75
2024/03/14 00:34:02;;;;;;;3.47;2.40;;;;;;;6.76;82.17;94356.94;5113884;28;20039;-75
2024/03/14 00:36:28;;;;;;;3.25;2.42;;;;;;;6.51;83.71;94334.72;5130593;28;20032;-76
2024/03/14 00:38:54;;;;;;;2.83;2.22;;;;;;;6.64;82.64;94343.22;5133713;27;20511;-76
2024/03/14 00:41:19;;;;;;;3.10;2.40;;;;;;;6.81;83.16;94341.94;5134256;27;20035;-75
2024/03/14 00:43:47;;;;;;;2.90;2.17;;;;;;;6.74;84.25;94340.75;5152669;27;20083;-75
2024/03/14 00:46:14;;;;;;;2.88;2.35;;;;;;;6.62;84.39;94347.66;5134361;27;20055;-76
2024/03/14 00:48:40;;;;;;;2.80;2.10;;;;;;;6.67;83.34;94342.97;5133884;27;20030;-76
2024/03/14 00:51:06;;;;;;;3.20;2.40;;;;;;;6.77;81.43;94340.53;5134147;27;20472;-75
2024/03/14 00:53:32;;;;;;;3.03;2.20;;;;;;;6.60;81.31;94318.59;5117196;27;20018;-76
2024/03/14 00:55:58;;;;;;;2.75;1.95;;;;;;;6.54;80.82;94329.34;5133959;27;20061;-75
2024/03/14 00:58:24;;;;;;;2.95;2.20;;;;;;;6.64;80.90;94344.97;5134945;27;20030;-76
2024/03/14 01:00:50;;;;;;;2.85;2.38;;;;;;;6.77;81.47;94339.69;5138055;27;20030;-75
2024/03/14 01:03:17;;;;;;;2.53;2.10;;;;;;;6.74;80.26;94345.09;5137868;27;20026;-75
2024/03/14 01:05:42;;;;;;;2.85;2.20;;;;;;;6.56;79.64;94336.97;5117027;27;20114;-75
2024/03/14 01:08:08;;;;;;;2.97;2.20;;;;;;;6.81;79.37;94339.38;5099995;27;20092;-75
2024/03/14 01:10:33;;;;;;;2.85;2.13;;;;;;;6.95;79.30;94340.91;5117261;27;20031;-76
2024/03/14 01:12:59;;;;;;;3.42;2.30;;;;;;;6.60;79.36;94300.50;5117225;27;20027;-75
2024/03/14 01:15:24;;;;;;;4.00;2.50;;;;;;;6.88;79.55;94327.66;5135099;27;20099;-75
2024/03/14 01:17:49;;;;;;;4.05;2.67;;;;;;;6.96;79.18;94329.63;5119224;27;20027;-76
2024/03/14 01:20:16;;;;;;;2.80;2.00;;;;;;;6.94;77.21;94323.78;5156115;27;20527;-76
2024/03/14 01:22:44;;;;;;;2.83;2.13;;;;;;;7.05;77.99;94331.53;5136239;27;20026;-75
2024/03/14 01:25:10;;;;;;;2.60;2.10;;;;;;;7.13;76.95;94325.75;5132238;27;20037;-75
2024/03/14 01:27:36;;;;;;;5.53;3.47;;;;;;;7.09;78.05;94330.34;5136320;27;20035;-75
2024/03/14 01:30:01;;;;;;;4.80;3.13;;;;;;;6.90;78.59;94320.56;5120096;27;20444;-76
2024/03/14 01:32:26;;;;;;;3.42;2.20;;;;;;;6.94;78.49;94331.53;5156033;27;20087;-75
2024/03/14 01:34:52;;;;;;;3.08;2.10;;;;;;;6.63;78.34;94291.69;5137446;27;20030;-75
2024/03/14 01:37:18;;;;;;;2.83;1.80;;;;;;;6.89;78.20;94320.72;5136236;27;20023;-76
2024/03/14 01:39:43;;;;;;;1.90;1.42;;;;;;;7.00;77.85;94331.03;5120156;27;20031;-75
2024/03/14 01:42:11;;;;;;;2.00;1.55;;;;;;;6.96;76.89;94323.63;5116248;27;20150;-75
2024/03/14 01:45:00;;;;;;;2.53;1.50;;;;;;;7.02;77.51;94325.75;5127937;27;20091;-75
2024/03/14 01:47:25;;;;;;;2.67;1.90;;;;;;;6.89;77.24;94325.88;5120204;27;20035;-75
2024/03/14 01:49:51;;;;;;;2.30;1.45;;;;;;;6.99;76.99;94324.22;5102474;27;20030;-75
2024/03/14 01:52:17;;;;;;;2.50;1.65;;;;;;;7.04;78.10;94316.13;5136966;27;20035;-75
2024/03/14 01:54:43;;;;;;;2.28;1.50;;;;;;;7.10;77.08;94326.84;5120042;27;20504;-75
2024/03/14 01:57:09;;;;;;;2.80;1.77;;;;;;;6.93;78.52;94325.50;5119763;27;20033;-75
2024/03/14 01:59:36;;;;;;;2.55;1.67;;;;;;;7.07;79.08;94316.72;5136672;27;20027;-75
2024/03/14 02:02:01;;;;;;;2.60;1.80;;;;;;;7.06;77.97;94314.25;5120009;27;20553;-74
2024/03/14 02:04:31;;;;;;;2.38;1.63;;;;;;;6.98;76.66;94321.78;5136835;27;20030;-75
2024/03/14 02:07:09;;;;;;;2.45;1.95;;;;;;;7.03;78.28;94307.56;5115932;27;20094;-75
2024/03/14 02:09:35;;;;;;;2.20;1.35;;;;;;;6.87;77.04;94320.81;5118880;27;20087;-75
2024/03/14 02:12:04;;;;;;;2.10;1.40;;;;;;;6.69;76.62;94281.75;5136383;27;20102;-76
2024/03/14 02:14:30;;;;;;;2.95;1.60;;;;;;;6.66;76.59;94281.16;5155166;27;20019;-75
2024/03/14 02:16:56;;;;;;;2.50;1.70;;;;;;;6.87;77.33;94314.84;5136587;27;20034;-75
2024/03/14 02:19:21;;;;;;;2.72;1.35;;;;;;;6.82;74.71;94301.44;5102110;27;20031;-75
2024/03/14 02:21:48;;;;;;;2.08;1.30;;;;;;;6.86;75.63;94308.03;5155001;27;20039;-75
2024/03/14 02:24:13;;;;;;;1.92;1.30;;;;;;;6.77;75.92;94299.25;5136531;27;20079;-75
2024/03/14 02:26:42;;;;;;;11.90;7.22;;;;;;;6.81;75.66;94292.06;5135681;27;20031;-76
2024/03/14 02:29:07;;;;;;;3.17;2.08;;;;;;;6.93;74.71;94293.69;5154665;27;20034;-76
2024/03/14 02:31:34;;;;;;;3.05;1.73;;;;;;;7.23;73.82;94305.22;5101753;27;20145;-75
2024/03/14 02:33:59;;;;;;;3.83;2.30;;;;;;;7.19;74.23;94290.88;5135760;27;20555;-75
2024/03/14 02:36:25;;;;;;;2.00;1.58;;;;;;;7.27;75.15;94301.44;5135986;27;20027;-75
2024/03/14 02:38:52;;;;;;;2.97;1.50;;;;;;;7.31;75.17;94310.59;5154256;27;20019;-75
2024/03/14 02:41:18;;;;;;;1.95;1.40;;;;;;;7.35;75.14;94299.91;5136121;27;20027;-75
2024/03/14 02:43:43;;;;;;;2.50;1.63;;;;;;;7.43;75.40;94301.88;5135836;27;20049;-75
2024/03/14 02:46:09;;;;;;;2.63;1.35;;;;;;;7.35;75.85;94309.41;5135419;27;20031;-76
2024/03/14 02:48:37;;;;;;;2.33;1.60;;;;;;;7.22;75.43;94294.06;5135576;27;20027;-75
2024/03/14 02:51:03;;;;;;;2.60;1.88;;;;;;;7.24;75.76;94299.91;5119088;27;20113;-75
2024/03/14 02:53:29;;;;;;;3.60;1.77;;;;;;;7.23;75.71;94312.94;5135505;27;20091;-75
2024/03/14 02:55:55;;;;;;;2.65;1.73;;;;;;;7.17;77.14;94298.75;5101471;27;20090;-76
2024/03/14 02:58:21;;;;;;;3.92;2.53;;;;;;;7.21;75.70;94302.72;5134902;27;20118;-75
2024/03/14 03:00:48;;;;;;;4.50;2.22;;;;;;;7.23;75.35;94311.19;5135612;27;20412;-75
2024/03/14 03:03:15;;;;;;;3.85;1.90;;;;;;;7.06;76.26;94315.06;5135818;27;20023;-75
2024/03/14 03:05:40;;;;;;;2.25;1.42;;;;;;;7.02;74.80;94316.25;5097592;27;20084;-75
2024/03/14 03:08:07;;;;;;;2.08;1.48;;;;;;;7.11;74.56;94310.38;5114636;27;20489;-75
2024/03/14 03:10:33;;;;;;;2.70;1.58;;;;;;;7.01;74.19;94316.38;5114847;27;20027;-76
2024/03/14 03:12:58;;;;;;;2.30;1.50;;;;;;;7.00;74.48;94312.97;5133264;27;20065;-75
2024/03/14 03:15:24;;;;;;;2.33;1.73;;;;;;;7.03;73.98;94317.06;5114863;27;20023;-75
2024/03/14 03:17:50;;;;;;;1.95;1.40;;;;;;;6.91;74.21;94311.91;5114637;27;20027;-75
2024/03/14 03:20:18;;;;;;;1.85;1.30;;;;;;;7.15;74.42;94311.78;5132713;27;20079;-76
2024/03/14 03:23:06;;;;;;;2.30;1.50;;;;;;;6.98;74.24;94285.63;5132951;27;20424;-75
2024/03/14 03:25:32;;;;;;;2.40;1.60;;;;;;;7.05;74.72;94312.59;5120981;27;20050;-75
2024/03/14 03:27:59;;;;;;;3.15;1.80;;;;;;;7.19;73.67;94311.53;5135022;27;20120;-75
2024/03/14 03:30:24;;;;;;;3.17;2.05;;;;;;;7.23;74.10;94316.34;5135049;27;20023;-76
2024/03/14 03:32:50;;;;;;;3.10;2.22;;;;;;;7.20;74.52;94323.53;5134506;27;20041;-75
2024/03/14 03:35:18;;;;;;;6.63;4.45;;;;;;;6.98;74.32;94312.25;5134461;27;20030;-76
2024/03/14 03:37:44;;;;;;;3.80;2.58;;;;;;;7.10;73.71;94325.97;5118321;27;20087;-75
2024/03/14 03:40:14;;;;;;;3.90;2.60;;;;;;;7.19;74.83;94324.44;5117560;27;20031;-76
2024/03/14 03:42:41;;;;;;;3.13;2.20;;;;;;;7.24;75.31;94306.84;5152806;27;20400;-75
2024/03/14 03:45:10;;;;;;;4.47;2.47;;;;;;;7.01;75.94;94319.75;5100383;27;20464;-76
2024/03/14 03:47:36;;;;;;;3.42;1.80;;;;;;;7.30;75.75;94329.59;5118199;27;20019;-75
2024/03/14 03:50:03;;;;;;;2.42;1.70;;;;;;;7.31;74.94;94329.50;5117317;27;20023;-75
2024/03/14 03:52:28;;;;;;;4.05;3.00;;;;;;;7.20;75.82;94326.94;5133387;27;20122;-76
2024/03/14 03:54:54;;;;;;;3.65;1.83;;;;;;;7.04;75.42;94327.28;5152810;27;20460;-75
2024/03/14 03:57:19;;;;;;;3.45;2.47;;;;;;;7.05;75.80;94320.34;5151831;27;20035;-75
2024/03/14 03:59:45;;;;;;;7.80;4.60;;;;;;;7.08;76.10;94328.69;5134369;27;20027;-75
2024/03/14 04:02:11;;;;;;;3.95;2.78;;;;;;;6.97;76.06;94322.72;5152114;27;20091;-76
2024/03/14 04:04:37;;;;;;;2.95;2.10;;;;;;;6.89;76.18;94323.28;5117286;27;20063;-76
2024/03/14 04:07:03;;;;;;;4.25;2.33;;;;;;;7.10;76.50;94336.31;5116795;27;20038;-76
2024/03/14 04:09:29;;;;;;;4.57;2.90;;;;;;;6.86;77.22;94302.88;5133945;27;20023;-76
2024/03/14 04:11:55;;;;;;;4.85;2.88;;;;;;;7.05;78.02;94339.28;5133640;27;20162;-76
2024/03/14 04:14:21;;;;;;;3.85;2.60;;;;;;;6.89;78.13;94336.22;5132116;27;20030;-76
2024/03/14 04:16:46;;;;;;;4.70;2.70;;;;;;;6.90;77.32;94336.06;5130901;27;20498;-76
2024/03/14 04:19:12;;;;;;;3.70;2.72;;;;;;;7.01;77.53;94339.59;5133890;27;20042;-76
2024/03/14 04:21:37;;;;;;;3.00;1.95;;;;;;;6.80;78.01;94329.13;5152388;27;20031;-76
2024/03/14 04:24:04;;;;;;;3.67;2.35;;;;;;;6.54;78.63;94318.19;5152425;27;20038;-76
2024/03/14 04:26:29;;;;;;;2.55;1.90;;;;;;;6.81;79.34;94338.53;5133882;27;20037;-76
2024/03/14 04:28:54;;;;;;;4.93;2.17;;;;;;;6.83;78.13;94340.06;5152452;27;20019;-76
2024/03/14 04:31:20;;;;;;;2.50;1.77;;;;;;;6.82;77.21;94338.41;5152429;27;20373;-76
2024/03/14 04:33:46;;;;;;;4.03;2.08;;;;;;;6.57;78.23;94307.66;5135849;27;20511;-76
2024/03/14 04:36:11;;;;;;;2.90;1.85;;;;;;;6.74;76.24;94338.16;5156420;27;20035;-76
2024/03/14 04:38:40;;;;;;;2.55;1.70;;;;;;;6.89;78.21;94336.22;5138037;27;20028;-76
2024/03/14 04:41:14;;;;;;;2.25;1.40;;;;;;;6.87;76.14;94343.25;5120931;27;20022;-76
2024/03/14 04:43:40;;;;;;;2.03;1.50;;;;;;;6.91;77.35;94342.09;5155943;27;20412;-76
2024/03/14 04:46:06;;;;;;;3.55;1.70;;;;;;;6.86;77.28;94337.25;5119955;27;20065;-76
2024/03/14 04:48:31;;;;;;;2.20;1.50;;;;;;;6.69;78.48;94327.38;5136738;27;20533;-76
2024/03/14 04:50:59;;;;;;;1.90;1.45;;;;;;;7.00;78.80;94353.47;5156309;27;20038;-76
2024/03/14 04:53:26;;;;;;;2.35;1.70;;;;;;;6.85;77.54;94353.69;5156072;27;20030;-76
2024/03/14 04:55:54;;;;;;;2.22;1.50;;;;;;;6.74;76.46;94343.31;5120652;27;20057;-76
2024/03/14 04:58:20;;;;;;;2.50;1.50;;;;;;;7.01;76.02;94361.09;5155881;27;20538;-76
2024/03/14 05:00:46;;;;;;;2.30;1.70;;;;;;;7.02;76.63;94359.31;5120582;27;20027;-76
2024/03/14 05:03:13;;;;;;;2.25;1.73;;;;;;;6.96;76.02;94357.22;5103589;27;20145;-76
2024/03/14 05:05:40;;;;;;;3.33;1.52;;;;;;;6.78;74.68;94367.19;5149952;27;20051;-76
2024/03/14 05:08:06;;;;;;;2.17;1.42;;;;;;;6.90;75.63;94366.25;5135766;27;20532;-76
2024/03/14 05:10:31;;;;;;;2.00;1.30;;;;;;;7.04;75.85;94367.78;5154982;27;20291;-76
2024/03/14 05:12:57;;;;;;;2.45;1.85;;;;;;;7.14;76.41;94366.97;5101406;27;20048;-76
2024/03/14 05:15:23;;;;;;;2.85;1.70;;;;;;;6.95;78.41;94374.47;5135118;27;20408;-76
2024/03/14 05:17:48;;;;;;;3.22;1.77;;;;;;;6.77;77.66;94371.53;5118521;27;20077;-76
2024/03/14 05:20:13;;;;;;;2.50;1.88;;;;;;;6.63;76.96;94359.66;5105478;27;20385;-77
2024/03/14 05:22:39;;;;;;;2.90;1.92;;;;;;;6.76;76.84;94366.47;5123881;27;20027;-76
2024/03/14 05:25:09;;;;;;;3.38;2.50;;;;;;;6.61;78.09;94365.84;5120046;27;20466;-75
2024/03/14 05:27:35;;;;;;;4.55;2.33;;;;;;;6.41;77.60;94323.47;5109310;27;20050;-75
2024/03/14 05:30:00;;;;;;;6.60;4.78;;;;;;;6.74;79.00;94379.47;5149444;27;20031;-74
2024/03/14 05:32:29;;;;;;;3.75;2.90;;;;;;;6.44;79.57;94380.00;5114845;27;20048;-75
2024/03/14 05:34:54;;;;;;;3.80;2.80;;;;;;;6.54;77.23;94391.28;5109593;27;20040;-72
2024/03/14 05:37:21;;;;;;;5.95;3.85;;;;;;;6.41;77.28;94375.88;5107599;27;20066;-75
2024/03/14 05:39:47;;;;;;;3.00;2.10;;;;;;;6.46;76.94;94375.53;5127949;27;20497;-75
2024/03/14 05:42:12;;;;;;;2.85;2.28;;;;;;;6.54;76.58;94391.28;5145480;27;20052;-75
2024/03/14 05:44:41;;;;;;;4.68;3.30;;;;;;;6.46;77.72;94383.28;5115249;27;20019;-75
2024/03/14 05:47:09;;;;;;;3.40;2.63;;;;;;;6.52;77.49;94393.16;5118661;27;20491;-75
2024/03/14 05:49:38;;;;;;;3.17;2.30;;;;;;;6.56;77.39;94399.75;5080984;27;20091;-75
2024/03/14 05:52:04;;;;;;;3.58;2.55;;;;;;;6.38;78.07;94377.84;5106065;27;20536;-75
2024/03/14 05:54:30;;;;;;;5.25;3.10;;;;;;;6.49;77.54;94394.22;5150594;27;20022;-75
2024/03/14 05:56:56;;;;;;;3.90;2.80;;;;;;;6.70;78.75;94396.13;5114922;27;20035;-75
2024/03/14 05:59:21;;;;;;;3.67;2.40;;;;;;;6.69;78.48;94391.94;5131451;27;20119;-76
2024/03/14 06:01:47;;;;;;;3.45;2.20;;;;;;;6.72;78.47;94383.94;5117718;27;20032;-75
2024/03/14 06:04:13;;;;;;;3.45;2.33;;;;;;;6.87;78.42;94397.47;5119750;27;20553;-75
2024/03/14 06:06:38;;;;;;;3.25;2.50;;;;;;;6.68;79.83;94378.16;5119215;27;20030;-76
2024/03/14 06:09:04;;;;;;;5.90;4.43;;;;;;;6.71;77.87;94398.63;5101487;27;20389;-75
2024/03/14 06:11:31;;;;;;;4.32;3.20;;;;;;;6.66;78.67;94405.88;5102684;27;20034;-75
2024/03/14 06:13:58;;;;;;;4.28;2.63;;;;;;;6.67;77.32;94391.22;5113923;27;20130;-75
2024/03/14 06:16:24;;;;;;;3.08;2.33;;;;;;;6.90;76.96;94399.81;5099826;27;20121;-75
2024/03/14 06:18:49;;;;;;;3.38;2.33;;;;;;;6.86;77.72;94395.81;5108558;27;20552;-75
2024/03/14 06:21:15;;;;;;;3.72;2.75;;;;;;;6.94;76.92;94393.50;5118524;27;20114;-75
2024/03/14 06:23:41;;;;;;;3.05;2.40;;;;;;;7.10;75.56;94404.31;5102614;27;20099;-75
2024/03/14 06:26:06;;;;;;;8.90;5.22;;;;;;;6.83;76.96;94401.22;5110209;27;20030;-76
2024/03/14 06:28:32;;;;;;;4.10;2.97;;;;;;;7.08;76.35;94415.69;5134460;27;20043;-75
2024/03/14 06:30:59;;;;;;;3.50;2.40;;;;;;;7.30;76.85;94409.72;5122989;27;20029;-75
2024/03/14 06:33:24;;;;;;;8.88;5.43;;;;;;;7.12;77.74;94405.00;5106662;27;20031;-75
2024/03/14 06:35:50;;;;;;;4.95;3.20;;;;;;;7.20;76.94;94413.94;5131903;27;20083;-75
2024/03/14 06:38:16;;;;;;;3.47;2.10;;;;;;;7.16;74.77;94406.44;5135151;27;20041;-75
2024/03/14 06:40:41;;;;;;;6.28;3.47;;;;;;;7.14;74.82;94430.72;5097798;27;20030;-75
2024/03/14 06:43:06;;;;;;;5.65;2.65;;;;;;;7.11;75.44;94426.63;5114945;27;20034;-75
2024/03/14 06:45:33;;;;;;;2.00;1.30;;;;;;;7.16;74.84;94414.19;5102602;27;20030;-75
2024/03/14 06:47:59;;;;;;;1.83;1.25;;;;;;;7.10;74.41;94437.91;5149173;27;20122;-75
2024/03/14 06:50:25;;;;;;;2.47;1.30;;;;;;;7.19;74.70;94438.13;5153945;27;20090;-75
2024/03/14 06:52:50;;;;;;;3.15;1.88;;;;;;;7.13;73.54;94422.16;5097344;27;20131;-75
2024/03/14 06:55:16;;;;;;;3.25;2.50;;;;;;;7.27;74.64;94420.28;5149486;27;20029;-77
2024/03/14 06:57:44;;;;;;;2.83;2.20;;;;;;;7.51;74.25;94436.50;5134830;27;20110;-74
2024/03/14 07:00:16;;;;;;;5.15;3.40;;;;;;;7.21;74.16;94444.81;5117049;27;20034;-74
2024/03/14 07:02:43;;;;;;;7.00;4.43;;;;;;;7.35;74.44;94436.03;5135420;27;20134;-75
2024/03/14 07:05:14;;;;;;;8.50;4.65;;;;;;;7.35;75.74;94441.19;5114163;27;20023;-72
2024/03/14 07:07:46;;;;;;;3.65;2.58;;;;;;;7.53;75.74;94436.41;5107751;27;20034;-76
2024/03/14 07:10:16;;;;;;;4.03;2.97;;;;;;;7.43;74.79;94446.59;5126902;27;20027;-72
2024/03/14 07:12:47;;;;;;;6.40;4.18;;;;;;;7.31;75.33;94422.53;5132304;27;20039;-75
2024/03/14 07:15:13;;;;;;;4.32;2.95;;;;;;;7.45;74.03;94442.16;5115774;27;20038;-75
2024/03/14 07:17:40;;;;;;;4.78;2.80;;;;;;;7.21;74.33;94446.59;5131228;27;20516;-75
2024/03/14 07:20:33;;;;;;;4.72;3.22;;;;;;;7.26;74.52;94441.91;5131202;27;20102;-75
2024/03/14 07:22:51;;;;;;;3.55;2.60;;;;;;;7.23;74.59;94450.69;5149744;27;20042;-75
2024/03/14 07:25:17;;;;;;;4.50;3.67;;;;;;;7.36;75.00;94445.44;5133020;27;20524;-75
2024/03/14 07:27:44;;;;;;;5.07;3.95;;;;;;;7.44;74.94;94444.84;5132944;27;20043;-75
2024/03/14 07:30:14;;;;;;;5.20;3.53;;;;;;;7.10;74.93;94435.31;5116247;27;20027;-75
2024/03/14 07:32:43;;;;;;;8.25;5.18;;;;;;;7.08;75.97;94433.78;5118436;27;20058;-75
2024/03/14 07:35:12;;;;;;;5.30;3.17;;;;;;;7.42;75.85;94451.91;5115813;27;20109;-75
2024/03/14 07:37:38;;;;;;;7.50;4.57;;;;;;;7.39;76.32;94447.78;5133063;27;20457;-75
2024/03/14 07:40:05;;;;;;;5.25;3.75;;;;;;;7.40;74.78;94449.41;5117367;27;20507;-75
2024/03/14 07:42:31;;;;;;;4.95;3.47;;;;;;;7.39;74.81;94450.38;5134696;27;20457;-75
2024/03/14 07:44:57;;;;;;;5.88;3.08;;;;;;;7.23;75.06;94434.38;5134413;27;20038;-75
2024/03/14 07:47:25;;;;;;;6.50;4.20;;;;;;;7.34;74.60;94447.31;5117168;27;20030;-75
2024/03/14 07:49:51;;;;;;;5.57;3.83;;;;;;;7.56;75.53;94455.06;5134846;27;20086;-74
2024/03/14 07:52:17;;;;;;;6.95;4.80;;;;;;;7.65;74.98;94443.19;5134387;27;20500;-75
2024/03/14 07:54:45;;;;;;;4.20;3.20;;;;;;;7.92;73.80;94437.66;5100199;27;20045;-75
2024/03/14 07:57:15;;;;;;;7.82;5.03;;;;;;;7.86;74.90;94448.47;5100799;27;20041;-75
2024/03/14 07:59:41;;;;;;;6.70;4.13;;;;;;;8.17;74.72;94433.13;5134265;27;20070;-75
2024/03/14 08:02:07;;;;;;;8.70;5.20;;;;;;;8.21;74.02;94432.75;5116922;27;20026;-75
2024/03/14 08:04:34;;;;;;;6.00;3.75;;;;;;;8.29;73.16;94435.56;5117209;27;20449;-75
2024/03/14 08:07:03;;;;;;;5.15;3.42;;;;;;;8.20;72.17;94435.47;5117479;27;20484;-75
2024/03/14 08:09:28;;;;;;;4.93;3.50;;;;;;;8.27;72.27;94442.66;5134519;27;20026;-75
2024/03/14 08:11:54;;;;;;;6.72;3.63;;;;;;;8.38;72.19;94453.88;5117090;27;20464;-75
2024/03/14 08:14:20;;;;;;;5.20;2.92;;;;;;;8.23;71.64;94451.56;5116911;27;20034;-75
2024/03/14 08:16:46;;;;;;;6.45;3.88;;;;;;;8.23;72.01;94477.47;5100035;27;20031;-75
2024/03/14 08:19:14;;;;;;;4.65;3.22;;;;;;;8.34;70.09;94458.50;5152493;27;20408;-75
2024/03/14 08:21:39;;;;;;;3.65;2.78;;;;;;;8.39;69.31;94460.75;5134443;27;20544;-75
2024/03/14 08:24:11;;;;;;;6.22;3.42;;;;;;;8.58;67.77;94460.94;5116949;27;20031;-75
2024/03/14 08:26:37;;;;;;;5.07;2.83;;;;;;;8.64;68.12;94457.03;5134663;27;20062;-75
2024/03/14 08:29:02;;;;;;;4.38;3.10;;;;;;;8.73;67.87;94464.84;5099844;27;20026;-75
2024/03/14 08:31:28;;;;;;;5.45;3.08;;;;;;;8.82;68.69;94459.88;5116759;27;20042;-75
2024/03/14 08:33:55;;;;;;;4.40;2.80;;;;;;;8.75;68.13;94451.78;5116754;27;20034;-75
2024/03/14 08:36:21;;;;;;;3.60;2.70;;;;;;;8.83;66.41;94444.22;5117391;27;20524;-75
2024/03/14 08:38:48;;;;;;;4.38;2.25;;;;;;;8.62;66.96;94467.50;5134014;27;20488;-75
2024/03/14 08:41:13;;;;;;;4.30;2.63;;;;;;;8.81;65.73;94460.84;5099754;27;20073;-74
2024/03/14 08:43:40;;;;;;;4.65;3.00;;;;;;;8.79;67.01;94463.53;5133892;27;20480;-75
2024/03/14 08:46:06;;;;;;;3.38;2.10;;;;;;;8.60;65.09;94464.19;5116702;27;20161;-75
2024/03/14 08:48:33;;;;;;;6.55;3.38;;;;;;;8.67;66.48;94461.94;5099805;27;20476;-75
2024/03/14 08:50:59;;;;;;;5.40;3.35;;;;;;;8.48;66.37;94455.66;5100167;27;20074;-75
2024/03/14 08:53:30;;;;;;;5.03;2.80;;;;;;;8.66;66.23;94462.88;5133540;27;20027;-75
2024/03/14 08:55:55;;;;;;;4.88;2.97;;;;;;;8.83;67.08;94464.09;5134484;27;20385;-75
2024/03/14 08:58:25;;;;;;;12.00;7.47;;;;;;;8.95;67.70;94444.97;5116402;27;20034;-75
2024/03/14 09:00:53;;;;;;;5.15;3.58;;;;;;;9.03;67.30;94449.53;5116789;27;20083;-75
2024/03/14 09:03:19;;;;;;;4.32;3.33;;;;;;;9.11;67.40;94440.19;5134067;27;20103;-75
2024/03/14 09:05:45;;;;;;;3.85;2.90;;;;;;;9.17;65.95;94446.63;5116366;27;20408;-74
2024/03/14 09:08:11;;;;;;;3.85;2.95;;;;;;;9.50;65.22;94457.69;5116317;27;20037;-74
2024/03/14 09:10:37;;;;;;;3.88;2.90;;;;;;;9.70;66.03;94463.81;5133556;27;20511;-75
2024/03/14 09:13:04;;;;;;;3.70;2.40;;;;;;;9.59;63.70;94462.13;5116206;27;20027;-75
2024/03/14 09:15:30;;;;;;;2.55;1.80;;;;;;;9.63;63.33;94468.69;5133716;27;20025;-75
2024/03/14 09:17:55;;;;;;;2.65;1.75;;;;;;;9.59;63.64;94475.09;5133404;27;20019;-75
2024/03/14 09:20:21;;;;;;;2.70;1.98;;;;;;;9.53;63.25;94468.66;5119141;27;20473;-75
2024/03/14 09:22:53;;;;;;;2.40;1.40;;;;;;;9.20;63.37;94455.91;5120114;27;20027;-75
2024/03/14 09:25:19;;;;;;;3.30;2.00;;;;;;;9.29;64.94;94466.31;5138221;27;20027;-75
2024/03/14 09:37:50;;;;;;;2.97;1.77;;;;;;;9.56;63.91;94467.56;5114981;27;20123;-74
2024/03/14 09:40:16;;;;;;;5.53;3.15;;;;;;;9.63;63.37;94434.97;5099535;27;20031;-75
2024/03/14 09:42:47;;;;;;;6.32;2.50;;;;;;;9.92;61.81;94449.81;5133189;27;20033;-75
2024/03/14 09:45:13;;;;;;;2.92;1.42;;;;;;;9.61;61.37;94455.00;5100547;27;20039;-75
2024/03/14 09:47:38;;;;;;;2.33;1.30;;;;;;;9.89;60.91;94458.72;5116144;27;20089;-75
2024/03/14 09:50:06;;;;;;;2.30;1.52;;;;;;;9.88;62.72;94469.19;5133155;27;20031;-75
2024/03/14 09:52:35;;;;;;;2.65;1.50;;;;;;;9.96;60.17;94484.94;5133087;27;20027;-75
2024/03/14 09:55:00;;;;;;;13.55;5.82;;;;;;;9.84;61.64;94482.44;5116073;27;20038;-75
2024/03/14 09:57:26;;;;;;;13.32;7.63;;;;;;;9.68;62.25;94486.47;5116144;27;20114;-75
2024/03/14 09:59:52;;;;;;;1.92;1.13;;;;;;;9.41;62.40;94500.78;5115962;27;20154;-75
2024/03/14 10:02:18;;;;;;;4.80;4.07;;;;;;;9.39;64.27;94500.91;5116043;27;20106;-75
2024/03/14 10:04:44;;;;;;;2.35;1.58;;;;;;;9.25;65.01;94496.06;5132936;27;20167;-75
2024/03/14 10:07:09;;;;;;;2.60;2.13;;;;;;;8.98;66.61;94491.38;5115737;27;20075;-75
2024/03/14 10:09:35;;;;;;;2.97;1.83;;;;;;;8.60;68.01;94497.03;5134091;27;20083;-75
2024/03/14 10:12:02;;;;;;;3.47;2.10;;;;;;;8.53;69.45;94508.84;5115909;27;20035;-75
2024/03/14 10:14:28;;;;;;;4.82;2.92;;;;;;;8.29;70.64;94504.63;5115818;27;20038;-75
2024/03/14 10:16:53;;;;;;;4.65;2.85;;;;;;;8.27;71.78;94509.09;5132753;27;20054;-78
2024/03/14 10:19:19;;;;;;;6.45;3.33;;;;;;;8.21;72.25;94512.16;5132674;27;20079;-75
2024/03/14 10:21:45;;;;;;;3.53;2.72;;;;;;;8.33;72.81;94513.81;5098511;27;20039;-75
2024/03/14 10:24:11;;;;;;;3.50;2.33;;;;;;;8.26;73.74;94517.81;5115489;27;20034;-75
2024/03/14 10:26:39;;;;;;;4.60;1.98;;;;;;;7.97;71.59;94507.16;5098505;27;20031;-75
2024/03/14 10:29:09;;;;;;;3.30;2.10;;;;;;;7.93;72.81;94503.94;5133578;27;20026;-75
2024/03/14 10:31:36;;;;;;;5.28;1.90;;;;;;;8.14;71.72;94516.19;5131322;27;20477;-75
2024/03/14 10:34:02;;;;;;;2.47;1.67;;;;;;;8.27;72.00;94512.50;5115389;27;20110;-75
2024/03/14 10:36:28;;;;;;;3.08;1.90;;;;;;;8.30;73.20;94519.19;5115129;27;20051;-75
2024/03/14 10:38:53;;;;;;;3.75;2.97;;;;;;;8.37;75.07;94517.78;5114944;27;20577;-75
2024/03/14 10:41:18;;;;;;;2.25;1.50;;;;;;;8.16;73.39;94517.72;5098003;27;20035;-75
2024/03/14 10:43:50;;;;;;;2.47;1.80;;;;;;;8.29;73.22;94512.38;5115149;27;20023;-75
2024/03/14 10:46:16;;;;;;;;;;;;;;;8.34;72.74;94530.97;5132588;27;20175;-75
2024/03/14 10:48:44;;;;;;;3.60;2.78;;;;;;;8.00;71.53;94515.47;5114962;27;19911;-75
2024/03/14 10:51:12;;;;;;;4.65;1.88;;;;;;;7.88;70.58;94529.34;5115357;27;20038;-75
2024/03/14 10:53:37;;;;;;;6.50;4.72;;;;;;;8.23;72.73;94534.38;5131926;27;20030;-75
2024/03/14 10:56:02;;;;;;;3.45;2.78;;;;;;;8.10;70.78;94527.69;5097722;27;20027;-75
2024/03/14 10:58:28;;;;;;;2.70;1.88;;;;;;;8.00;71.66;94543.13;5097782;27;20079;-75
2024/03/14 11:00:54;;;;;;;4.75;3.83;;;;;;;8.18;71.96;94535.69;5132222;27;20020;-75
2024/03/14 11:03:20;;;;;;;2.70;2.10;;;;;;;8.10;71.51;94533.69;5132189;27;20046;-75
2024/03/14 11:05:50;;;;;;;4.03;3.22;;;;;;;8.05;71.51;94546.16;5114907;27;20102;-75
2024/03/14 11:08:16;;;;;;;3.25;2.00;;;;;;;7.63;71.64;94535.56;5114515;27;20023;-75
2024/03/14 11:10:41;;;;;;;3.03;2.25;;;;;;;7.88;71.63;94555.19;5114444;27;20034;-75
2024/03/14 11:13:21;;;;;;;2.92;2.30;;;;;;;7.95;71.57;94550.41;5131478;27;20405;-75
2024/03/14 11:15:46;;;;;;;5.18;3.83;;;;;;;7.82;72.58;94546.16;5114905;27;20511;-75
2024/03/14 11:18:13;;;;;;;2.70;2.03;;;;;;;7.93;72.23;94545.34;5114243;27;20032;-75
2024/03/14 11:20:40;;;;;;;2.08;1.52;;;;;;;7.34;72.59;94517.09;5131358;27;20019;-74
2024/03/14 11:23:09;;;;;;;3.25;2.40;;;;;;;7.73;73.76;94541.69;5097577;27;20019;-75
2024/03/14 11:25:36;;;;;;;3.15;2.20;;;;;;;7.96;73.31;94558.03;5114870;27;20030;-75
2024/03/14 11:28:02;;;;;;;2.92;1.75;;;;;;;7.48;73.02;94552.22;5114175;27;20031;-75
2024/03/14 11:30:27;;;;;;;2.40;1.90;;;;;;;7.52;73.23;94561.38;5114116;27;20496;-74
2024/03/14 11:32:55;;;;;;;2.53;1.80;;;;;;;7.36;72.16;94559.16;5131226;27;20036;-74
2024/03/14 11:35:37;;;;;;;2.70;2.20;;;;;;;7.46;73.35;94561.84;5131159;27;20520;-75
2024/03/14 11:38:15;;;;;;;3.10;2.35;;;;;;;7.71;72.74;94577.16;5098817;27;20047;-75
2024/03/14 11:40:42;;;;;;;2.45;1.60;;;;;;;7.49;71.62;94584.88;5132300;27;20038;-75
2024/03/14 11:43:08;;;;;;;2.40;2.08;;;;;;;7.32;72.64;94560.28;5113771;27;20029;-74
2024/03/14 11:45:35;;;;;;;2.92;1.92;;;;;;;7.52;72.72;94585.50;5113823;27;20420;-74
2024/03/14 11:48:00;;;;;;;2.80;2.15;;;;;;;7.37;73.76;94573.69;5114017;27;20071;-75
2024/03/14 11:50:30;;;;;;;2.20;1.90;;;;;;;7.30;73.40;94569.91;5097018;27;20034;-75